Time;durP1;ratioP1;P1;durP2;ratioP2;P2;SDS_P1;SDS_P2;PMS_P1;PMS_P2;Temp;Humidity;BMP_temperature;BMP_pressure;BME280_temperature;BME280_humidity;BME280_pressure;Samples;Min_cycle;Max_cycle;Signal;HPM_P1;HPM_P2
2022/09/28 00:02:07;;;;;;;8.95;2.13;;;8.80;99.90;;;;;;5035472;28;20467;-57
2022/09/28 00:04:34;;;;;;;8.98;2.40;;;8.80;99.90;;;;;;5036730;28;20048;-57
2022/09/28 00:07:01;;;;;;;12.32;2.40;;;8.80;99.90;;;;;;5035855;28;20124;-58
2022/09/28 00:09:28;;;;;;;10.05;2.80;;;8.80;99.90;;;;;;5035965;28;20117;-55
2022/09/28 00:11:55;;;;;;;12.95;2.50;;;8.80;99.90;;;;;;5037092;28;20037;-55
2022/09/28 00:14:22;;;;;;;7.13;2.53;;;8.80;99.90;;;;;;5036922;28;20073;-55
2022/09/28 00:16:49;;;;;;;10.25;2.53;;;8.80;99.90;;;;;;5035669;28;20080;-56
2022/09/28 00:19:16;;;;;;;11.02;2.20;;;8.80;99.90;;;;;;5016693;28;20512;-57
2022/09/28 00:21:43;;;;;;;8.30;2.30;;;8.70;99.90;;;;;;5015649;28;20049;-55
2022/09/28 00:24:17;;;;;;;8.15;2.17;;;8.70;99.90;;;;;;5016704;28;20056;-54
2022/09/28 00:26:44;;;;;;;9.77;2.13;;;8.70;99.90;;;;;;5035596;28;20049;-58
2022/09/28 00:29:11;;;;;;;9.10;2.20;;;8.70;99.90;;;;;;5036620;28;20045;-58
2022/09/28 00:31:38;;;;;;;9.85;2.25;;;8.70;99.90;;;;;;5017781;28;20484;-55
2022/09/28 00:34:04;;;;;;;9.68;2.33;;;8.70;99.90;;;;;;5035262;28;20125;-55
2022/09/28 00:36:31;;;;;;;10.30;2.40;;;8.70;99.90;;;;;;5018575;28;20484;-57
2022/09/28 00:38:58;;;;;;;9.43;2.00;;;8.70;99.90;;;;;;5035963;28;20484;-56
2022/09/28 00:41:24;;;;;;;9.63;2.50;;;8.60;99.90;;;;;;5036314;28;20151;-53
2022/09/28 00:43:51;;;;;;;5.43;2.13;;;8.60;99.90;;;;;;5036473;28;20047;-55
2022/09/28 00:46:18;;;;;;;10.73;2.20;;;8.50;99.90;;;;;;5018584;28;20092;-54
2022/09/28 00:48:45;;;;;;;6.85;2.47;;;8.50;99.90;;;;;;5034870;28;20039;-57
2022/09/28 00:51:12;;;;;;;9.82;2.50;;;8.50;99.90;;;;;;5035899;28;20041;-56
2022/09/28 00:53:38;;;;;;;9.93;2.28;;;8.50;99.90;;;;;;5036069;28;20052;-53
2022/09/28 00:56:06;;;;;;;8.55;2.72;;;8.40;99.90;;;;;;5018350;28;20477;-58
2022/09/28 00:58:33;;;;;;;7.30;2.30;;;8.40;99.90;;;;;;5034415;28;20603;-57
2022/09/28 01:00:59;;;;;;;13.63;2.47;;;8.40;99.90;;;;;;5036058;28;20104;-56
2022/09/28 01:03:26;;;;;;;10.63;2.50;;;8.40;99.90;;;;;;5034901;28;20037;-57
2022/09/28 01:05:53;;;;;;;13.80;2.47;;;8.40;99.90;;;;;;5017817;28;20056;-58
2022/09/28 01:08:20;;;;;;;11.43;2.58;;;8.40;99.90;;;;;;5017016;28;20042;-58
2022/09/28 01:10:47;;;;;;;7.38;2.60;;;8.30;99.90;;;;;;5033466;28;20045;-56
2022/09/28 01:13:18;;;;;;;9.23;2.30;;;8.30;99.90;;;;;;5035267;28;20042;-57
2022/09/28 01:15:45;;;;;;;8.23;2.20;;;8.30;99.90;;;;;;5017720;28;20047;-56
2022/09/28 01:18:12;;;;;;;10.40;2.55;;;8.30;99.90;;;;;;5017784;28;20049;-57
2022/09/28 01:20:41;;;;;;;9.95;2.40;;;8.30;99.90;;;;;;5016873;28;20501;-53
2022/09/28 01:23:11;;;;;;;11.13;2.40;;;8.20;99.90;;;;;;5035439;28;20065;-56
2022/09/28 01:25:39;;;;;;;13.48;2.45;;;8.20;99.90;;;;;;5017269;28;20049;-57
2022/09/28 01:28:06;;;;;;;9.35;2.17;;;8.20;99.90;;;;;;5035055;28;20099;-54
2022/09/28 01:30:33;;;;;;;7.78;2.33;;;8.20;99.90;;;;;;5035064;28;20451;-55
2022/09/28 01:33:00;;;;;;;9.43;2.25;;;8.20;99.90;;;;;;5016354;28;20041;-55
2022/09/28 01:35:27;;;;;;;10.32;2.20;;;8.20;99.90;;;;;;5015390;28;20049;-58
2022/09/28 01:37:54;;;;;;;7.22;1.92;;;8.20;99.90;;;;;;5017547;28;20042;-60
2022/09/28 01:40:21;;;;;;;10.27;2.92;;;8.20;99.90;;;;;;5034519;28;20052;-55
2022/09/28 01:42:48;;;;;;;9.82;2.40;;;8.20;99.90;;;;;;5017308;28;20050;-57
2022/09/28 01:45:14;;;;;;;8.27;1.95;;;8.10;99.90;;;;;;5035008;28;20072;-57
2022/09/28 01:47:41;;;;;;;9.27;2.63;;;8.10;99.90;;;;;;5017045;28;20128;-57
2022/09/28 01:50:09;;;;;;;11.85;2.70;;;8.10;99.90;;;;;;5016275;28;20045;-55
2022/09/28 01:52:39;;;;;;;5.80;1.70;;;8.00;99.90;;;;;;5015999;28;20048;-55
2022/09/28 01:55:07;;;;;;;9.75;2.20;;;8.00;99.90;;;;;;5016699;28;20114;-58
2022/09/28 01:57:34;;;;;;;8.82;2.40;;;8.00;99.90;;;;;;5016827;28;20049;-57
2022/09/28 02:00:01;;;;;;;10.43;2.38;;;8.00;99.90;;;;;;5016885;28;20111;-57
2022/09/28 02:02:39;;;;;;;7.90;2.20;;;8.00;99.90;;;;;;5034575;28;20045;-55
2022/09/28 02:05:07;;;;;;;7.88;1.92;;;8.00;99.90;;;;;;5016728;28;20088;-57
2022/09/28 02:07:33;;;;;;;10.48;2.20;;;8.00;99.90;;;;;;5015970;28;20034;-56
2022/09/28 02:10:00;;;;;;;9.20;2.40;;;8.00;99.90;;;;;;5014715;28;20049;-57
2022/09/28 02:12:27;;;;;;;8.55;2.28;;;7.90;99.90;;;;;;5016633;28;20451;-58
2022/09/28 02:14:54;;;;;;;11.10;2.42;;;7.90;99.90;;;;;;5033845;28;20396;-57
2022/09/28 02:17:21;;;;;;;12.35;2.50;;;7.90;99.90;;;;;;5016345;28;20061;-58
2022/09/28 02:19:48;;;;;;;9.32;2.65;;;7.90;99.90;;;;;;5016220;28;20497;-57
2022/09/28 02:22:22;;;;;;;12.82;2.47;;;7.90;99.90;;;;;;5034147;28;20049;-56
2022/09/28 02:24:50;;;;;;;13.48;2.28;;;7.90;99.90;;;;;;5033319;28;20049;-57
2022/09/28 02:27:22;;;;;;;6.75;2.00;;;7.90;99.90;;;;;;5015406;28;20038;-55
2022/09/28 02:29:49;;;;;;;8.85;2.55;;;7.90;99.90;;;;;;5033320;28;20041;-58
2022/09/28 02:32:15;;;;;;;11.93;2.42;;;7.90;99.90;;;;;;5016062;28;20065;-57
2022/09/28 02:34:42;;;;;;;7.43;1.98;;;7.80;99.90;;;;;;5015976;28;20049;-56
2022/09/28 02:37:09;;;;;;;9.30;2.25;;;7.80;99.90;;;;;;5016163;28;20045;-58
2022/09/28 02:39:36;;;;;;;9.80;2.10;;;7.80;99.90;;;;;;5015124;28;20053;-57
2022/09/28 02:42:02;;;;;;;6.60;1.75;;;7.80;99.90;;;;;;5016293;28;20056;-58
2022/09/28 02:44:29;;;;;;;9.13;2.10;;;7.80;99.90;;;;;;5016050;28;20432;-56
2022/09/28 02:46:56;;;;;;;9.10;2.20;;;7.70;99.90;;;;;;5014899;28;20106;-58
2022/09/28 02:49:28;;;;;;;13.15;2.45;;;7.70;99.90;;;;;;5015897;28;20046;-55
2022/09/28 02:51:54;;;;;;;12.52;2.20;;;7.70;99.90;;;;;;5015887;28;20037;-56
2022/09/28 02:54:21;;;;;;;9.80;2.22;;;7.70;99.90;;;;;;5016035;28;20076;-56
2022/09/28 02:56:48;;;;;;;11.40;2.28;;;7.70;99.90;;;;;;5032817;28;20447;-56
2022/09/28 02:59:15;;;;;;;9.73;2.67;;;7.70;99.90;;;;;;4998824;28;20049;-57
2022/09/28 03:01:42;;;;;;;7.88;2.65;;;7.70;99.90;;;;;;5015689;28;20397;-55
2022/09/28 03:04:09;;;;;;;11.82;2.83;;;7.60;99.90;;;;;;5014864;28;20038;-54
2022/09/28 03:06:36;;;;;;;8.73;2.08;;;7.60;99.90;;;;;;5015970;28;20381;-56
2022/09/28 03:09:03;;;;;;;4.82;2.03;;;7.60;99.90;;;;;;5032686;28;20040;-55
2022/09/28 03:11:32;;;;;;;11.68;2.47;;;7.60;99.90;;;;;;5015662;28;20073;-55
2022/09/28 03:14:00;;;;;;;10.70;2.22;;;7.60;99.90;;;;;;5014544;28;20045;-56
2022/09/28 03:16:37;;;;;;;7.32;2.30;;;7.60;99.90;;;;;;5016147;28;20037;-57
2022/09/28 03:19:04;;;;;;;10.90;2.75;;;7.50;99.90;;;;;;5014932;28;20041;-56
2022/09/28 03:21:31;;;;;;;10.38;2.65;;;7.50;99.90;;;;;;4999119;28;20053;-56
2022/09/28 03:23:58;;;;;;;10.35;2.20;;;7.50;99.90;;;;;;5015840;28;20136;-57
2022/09/28 03:26:24;;;;;;;6.53;1.88;;;7.50;99.90;;;;;;5033752;28;20111;-58
2022/09/28 03:28:51;;;;;;;10.75;2.45;;;7.50;99.90;;;;;;5014803;28;20100;-55
2022/09/28 03:31:22;;;;;;;8.40;2.50;;;7.50;99.90;;;;;;5015003;28;20044;-55
2022/09/28 03:33:48;;;;;;;10.18;2.17;;;7.50;99.90;;;;;;5033316;28;20060;-55
2022/09/28 03:36:15;;;;;;;11.23;2.38;;;7.40;99.90;;;;;;5015422;28;20040;-58
2022/09/28 03:38:42;;;;;;;11.18;2.53;;;7.40;99.90;;;;;;5014756;28;20042;-52
2022/09/28 03:41:09;;;;;;;11.20;2.30;;;7.40;99.90;;;;;;5013771;28;20069;-55
2022/09/28 03:43:39;;;;;;;12.45;2.35;;;7.40;99.90;;;;;;5015892;28;20073;-56
2022/09/28 03:46:06;;;;;;;11.52;2.58;;;7.40;99.90;;;;;;5015396;28;20046;-56
2022/09/28 03:48:38;;;;;;;8.77;2.25;;;7.40;99.90;;;;;;5015717;28;20041;-56
2022/09/28 03:51:08;;;;;;;7.32;2.47;;;7.40;99.90;;;;;;5015149;28;20378;-57
2022/09/28 03:53:34;;;;;;;9.15;2.72;;;7.40;99.90;;;;;;5031355;28;20091;-55
2022/09/28 03:56:01;;;;;;;10.55;2.17;;;7.30;99.90;;;;;;5015710;28;20045;-57
2022/09/28 03:58:30;;;;;;;8.73;2.20;;;7.30;99.90;;;;;;5014896;28;20047;-54
2022/09/28 04:00:57;;;;;;;10.68;2.20;;;7.30;99.90;;;;;;5015258;28;20099;-58
2022/09/28 04:03:24;;;;;;;12.40;2.15;;;7.30;99.90;;;;;;5013586;28;20072;-56
2022/09/28 04:05:51;;;;;;;16.73;2.65;;;7.20;99.90;;;;;;5013620;28;20053;-56
2022/09/28 04:08:18;;;;;;;12.60;2.25;;;7.20;99.90;;;;;;5013075;28;20042;-55
2022/09/28 04:10:45;;;;;;;8.35;2.30;;;7.20;99.90;;;;;;5015178;28;20437;-58
2022/09/28 04:13:11;;;;;;;13.27;1.98;;;7.20;99.90;;;;;;5014950;28;20095;-56
2022/09/28 04:15:39;;;;;;;7.57;2.58;;;7.20;99.90;;;;;;5015019;28;20496;-56
2022/09/28 04:18:06;;;;;;;11.25;2.25;;;7.10;99.90;;;;;;5014535;28;20107;-55
2022/09/28 04:20:47;;;;;;;7.38;1.85;;;7.10;99.90;;;;;;5013476;28;20115;-59
2022/09/28 04:23:13;;;;;;;7.18;2.38;;;7.10;99.90;;;;;;5033108;28;20068;-55
2022/09/28 04:25:44;;;;;;;12.27;2.50;;;7.10;99.90;;;;;;5015136;28;20134;-58
2022/09/28 04:30:57;;;;;;;8.65;2.00;;;7.10;99.90;;;;;;5011415;28;20041;-58
2022/09/28 04:33:24;;;;;;;8.10;2.15;;;7.00;99.90;;;;;;5017095;28;20077;-59
2022/09/28 04:35:50;;;;;;;9.77;1.92;;;7.10;99.90;;;;;;5017651;28;20080;-58
2022/09/28 04:38:17;;;;;;;5.82;1.95;;;7.00;99.90;;;;;;5016237;28;20128;-60
2022/09/28 04:41:04;;;;;;;13.20;2.50;;;7.00;99.90;;;;;;5017426;28;20137;-58
2022/09/28 04:43:31;;;;;;;11.07;2.30;;;7.00;99.90;;;;;;5015610;28;20045;-57
2022/09/28 04:45:59;;;;;;;12.73;2.55;;;7.00;99.90;;;;;;5016978;28;20041;-57
2022/09/28 04:48:31;;;;;;;12.43;2.38;;;7.00;99.90;;;;;;5018394;28;20049;-60
2022/09/28 04:51:11;;;;;;;11.43;2.50;;;7.00;99.90;;;;;;5036341;28;20084;-64
2022/09/28 04:53:38;;;;;;;9.32;2.22;;;7.00;99.90;;;;;;5017673;28;20041;-58
2022/09/28 04:56:05;;;;;;;10.30;2.10;;;6.90;99.90;;;;;;5017173;28;20076;-61
2022/09/28 04:58:32;;;;;;;13.00;2.17;;;6.90;99.90;;;;;;5018522;28;20077;-58
2022/09/28 05:00:58;;;;;;;9.55;2.42;;;6.90;99.90;;;;;;5016341;28;20049;-58
2022/09/28 05:03:44;;;;;;;8.95;2.33;;;6.90;99.90;;;;;;5031876;28;20107;-56
2022/09/28 05:06:26;;;;;;;11.07;2.90;;;6.90;99.90;;;;;;5013088;28;20057;-59
2022/09/28 05:08:59;;;;;;;13.85;2.63;;;6.90;99.90;;;;;;5014646;28;20152;-57
2022/09/28 05:11:26;;;;;;;13.77;2.50;;;6.90;99.90;;;;;;5022687;28;20053;-66
2022/09/28 05:13:52;;;;;;;8.82;2.40;;;6.90;99.90;;;;;;5013482;28;20121;-57
2022/09/28 05:16:19;;;;;;;13.60;2.85;;;6.90;99.90;;;;;;5015794;28;20048;-58
2022/09/28 05:19:06;;;;;;;11.07;2.33;;;6.90;99.90;;;;;;5003640;28;20050;-56
2022/09/28 05:21:33;;;;;;;7.38;2.30;;;6.90;99.90;;;;;;5016655;28;20136;-57
2022/09/28 05:24:06;;;;;;;12.15;2.90;;;6.90;99.90;;;;;;5016042;28;20340;-56
2022/09/28 05:26:34;;;;;;;12.77;2.50;;;6.90;99.90;;;;;;5017457;28;20542;-57
2022/09/28 05:29:01;;;;;;;10.90;2.45;;;6.90;99.90;;;;;;5016427;28;20042;-57
2022/09/28 05:31:46;;;;;;;10.65;2.63;;;6.90;99.90;;;;;;5021468;28;20048;-57
2022/09/28 05:34:25;;;;;;;13.05;2.83;;;6.90;99.90;;;;;;5016909;28;20041;-56
2022/09/28 05:36:53;;;;;;;12.68;3.03;;;6.90;99.90;;;;;;5016806;28;20546;-57
2022/09/28 05:39:20;;;;;;;13.77;2.60;;;6.90;99.90;;;;;;5017027;28;20084;-57
2022/09/28 05:41:47;;;;;;;11.32;2.50;;;6.80;99.90;;;;;;5030719;28;20075;-56
2022/09/28 05:44:13;;;;;;;11.88;2.47;;;6.90;99.90;;;;;;5033662;28;20049;-57
2022/09/28 05:46:40;;;;;;;17.25;2.70;;;6.80;99.90;;;;;;5016576;28;20447;-57
2022/09/28 05:49:08;;;;;;;12.60;2.92;;;6.80;99.90;;;;;;5016681;28;20092;-57
2022/09/28 05:51:36;;;;;;;11.00;2.65;;;6.80;99.90;;;;;;5031726;28;20378;-55
2022/09/28 05:54:03;;;;;;;9.38;2.90;;;6.80;99.90;;;;;;5030791;28;20045;-58
2022/09/28 05:56:34;;;;;;;10.60;2.50;;;6.70;99.90;;;;;;5013973;28;20523;-56
2022/09/28 05:59:05;;;;;;;11.20;2.88;;;6.80;99.90;;;;;;4997386;28;20501;-56
2022/09/28 06:01:31;;;;;;;11.75;3.55;;;6.70;99.90;;;;;;5013857;28;20516;-57
2022/09/28 06:04:00;;;;;;;9.60;3.13;;;6.70;99.90;;;;;;5015307;28;20049;-57
2022/09/28 06:06:27;;;;;;;10.30;3.08;;;6.70;99.90;;;;;;5031706;28;20045;-57
2022/09/28 06:08:55;;;;;;;10.32;2.95;;;6.70;99.90;;;;;;5015694;28;20401;-54
2022/09/28 06:11:47;;;;;;;12.85;2.90;;;6.70;99.90;;;;;;5014617;28;20054;-56
2022/09/28 06:14:28;;;;;;;8.15;2.70;;;6.70;99.90;;;;;;5016571;28;20045;-54
2022/09/28 06:16:55;;;;;;;9.95;2.53;;;6.70;99.90;;;;;;5014956;28;20103;-55
2022/09/28 06:19:22;;;;;;;13.60;2.75;;;6.70;99.90;;;;;;5030924;28;20042;-57
2022/09/28 06:22:04;;;;;;;10.30;2.97;;;6.80;99.90;;;;;;5014941;28;20052;-57
2022/09/28 06:24:36;;;;;;;12.98;2.70;;;6.70;99.90;;;;;;5016551;28;20045;-56
2022/09/28 06:27:03;;;;;;;8.15;2.50;;;6.70;99.90;;;;;;5031428;28;20053;-57
2022/09/28 06:29:30;;;;;;;10.88;2.80;;;6.70;99.90;;;;;;5015566;28;20033;-55
2022/09/28 06:31:57;;;;;;;11.65;2.47;;;6.80;99.90;;;;;;5013937;28;20037;-56
2022/09/28 06:34:24;;;;;;;10.52;2.60;;;6.80;99.90;;;;;;5014325;28;20056;-54
2022/09/28 06:36:51;;;;;;;10.13;2.90;;;6.80;99.90;;;;;;5014949;28;20136;-53
2022/09/28 06:39:18;;;;;;;8.63;2.95;;;6.80;99.90;;;;;;5015195;28;20045;-54
2022/09/28 06:41:45;;;;;;;10.50;3.08;;;6.90;99.90;;;;;;5031280;28;20045;-57
2022/09/28 06:44:14;;;;;;;12.02;2.67;;;6.90;99.90;;;;;;5030808;28;20507;-55
2022/09/28 06:47:04;;;;;;;9.02;2.83;;;7.00;99.90;;;;;;5013592;28;20050;-55
2022/09/28 06:49:50;;;;;;;11.30;3.35;;;7.00;99.90;;;;;;5012420;28;20041;-55
2022/09/28 06:52:19;;;;;;;14.40;3.60;;;7.10;99.90;;;;;;5023423;28;20044;-55
2022/09/28 06:55:12;;;;;;;11.13;3.15;;;7.10;99.90;;;;;;5023667;28;20366;-57
2022/09/28 06:57:43;;;;;;;9.93;2.88;;;7.10;99.90;;;;;;5031634;28;20473;-58
2022/09/28 07:00:10;;;;;;;12.00;3.30;;;7.20;99.90;;;;;;5016318;28;20095;-54
2022/09/28 07:02:36;;;;;;;10.23;3.10;;;7.20;99.90;;;;;;4999305;28;20037;-57
2022/09/28 07:05:14;;;;;;;9.85;3.63;;;7.20;99.90;;;;;;5027149;28;20464;-57
2022/09/28 07:07:56;;;;;;;10.55;3.47;;;7.30;99.90;;;;;;5014768;28;20053;-56
2022/09/28 07:10:43;;;;;;;9.73;3.08;;;7.30;99.90;;;;;;5001747;28;20045;-56
2022/09/28 07:13:29;;;;;;;15.63;3.97;;;7.30;99.90;;;;;;5033556;28;20041;-53
2022/09/28 07:16:16;;;;;;;20.20;3.50;;;7.40;99.90;;;;;;5013215;28;20049;-55
2022/09/28 07:18:47;;;;;;;12.68;3.40;;;7.40;99.90;;;;;;5014849;28;20046;-55
2022/09/28 07:21:14;;;;;;;14.10;3.65;;;7.40;99.90;;;;;;5032837;28;20034;-53
2022/09/28 07:23:54;;;;;;;12.65;3.15;;;7.40;99.90;;;;;;5012599;28;20046;-54
2022/09/28 07:26:24;;;;;;;11.13;3.65;;;7.50;99.90;;;;;;5030042;28;20546;-57
2022/09/28 07:29:00;;;;;;;11.02;3.70;;;7.60;99.90;;;;;;5013591;28;20408;-57
2022/09/28 07:31:40;;;;;;;18.65;3.67;;;7.60;99.90;;;;;;5031844;28;20029;-54
2022/09/28 07:34:25;;;;;;;10.90;3.43;;;7.60;99.90;;;;;;5044155;28;20051;-55
2022/09/28 07:36:59;;;;;;;11.68;3.40;;;7.70;99.90;;;;;;5013117;28;20294;-55
2022/09/28 07:39:26;;;;;;;13.57;3.70;;;7.80;99.90;;;;;;5014029;28;20046;-55
2022/09/28 07:41:54;;;;;;;14.00;4.07;;;7.80;99.90;;;;;;5009005;28;20049;-57
2022/09/28 07:44:28;;;;;;;10.07;3.97;;;7.80;99.90;;;;;;5012794;28;20574;-56
2022/09/28 07:46:56;;;;;;;10.38;3.55;;;7.90;99.90;;;;;;5017852;28;20045;-57
2022/09/28 07:49:34;;;;;;;10.68;4.07;;;7.90;99.90;;;;;;5002145;28;20151;-53
2022/09/28 07:52:13;;;;;;;6.88;4.00;;;7.90;99.90;;;;;;5014188;28;20048;-55
2022/09/28 07:55:03;;;;;;;13.15;3.95;;;8.00;99.90;;;;;;5025902;28;20042;-52
2022/09/28 07:58:08;;;;;;;10.27;3.75;;;8.00;99.90;;;;;;4988204;28;20046;-54
2022/09/28 08:01:16;;;;;;;8.70;3.50;;;8.10;99.90;;;;;;4972662;28;20034;-54
2022/09/28 08:03:44;;;;;;;13.93;3.95;;;8.10;99.90;;;;;;4967195;28;20044;-54
2022/09/28 08:06:11;;;;;;;9.85;3.72;;;8.10;99.90;;;;;;5000977;28;20115;-55
2022/09/28 08:08:43;;;;;;;12.50;4.07;;;8.20;99.90;;;;;;5037911;28;20043;-56
2022/09/28 08:11:12;;;;;;;18.75;4.53;;;8.30;99.90;;;;;;5026776;28;20045;-54
2022/09/28 08:14:02;;;;;;;10.43;3.60;;;8.40;99.90;;;;;;5015131;28;20475;-58
2022/09/28 08:17:04;;;;;;;12.85;4.53;;;8.40;99.90;;;;;;4986976;28;20046;-52
2022/09/28 08:22:30;;;;;;;10.98;3.85;;;8.50;99.90;;;;;;5023618;28;20136;-56
2022/09/28 08:24:58;;;;;;;16.45;4.20;;;8.60;99.90;;;;;;5020090;28;20049;-54
2022/09/28 08:27:25;;;;;;;10.60;4.10;;;8.60;99.90;;;;;;5017756;28;20041;-55
2022/09/28 08:29:52;;;;;;;10.27;4.00;;;8.70;99.90;;;;;;5022987;28;20045;-52
2022/09/28 08:32:43;;;;;;;11.90;4.07;;;8.70;99.90;;;;;;5036629;28;20049;-57
2022/09/28 08:35:28;;;;;;;9.50;4.22;;;8.70;99.90;;;;;;5035377;28;20051;-54
2022/09/28 08:38:10;;;;;;;10.07;4.72;;;8.80;99.90;;;;;;5025396;28;20409;-55
2022/09/28 08:41:05;;;;;;;9.30;3.80;;;8.90;99.90;;;;;;5021355;28;20128;-54
2022/09/28 08:43:52;;;;;;;10.43;3.95;;;8.90;99.90;;;;;;5023909;28;20449;-53
2022/09/28 08:46:30;;;;;;;14.23;4.68;;;9.00;99.90;;;;;;5037168;28;20060;-56
2022/09/28 08:49:24;;;;;;;11.95;4.22;;;9.10;99.90;;;;;;5015694;28;20049;-56
2022/09/28 08:52:05;;;;;;;12.23;4.70;;;9.20;99.90;;;;;;5015838;28;20042;-57
2022/09/28 08:54:50;;;;;;;11.65;4.45;;;9.20;99.90;;;;;;5016912;28;20080;-57
2022/09/28 08:57:28;;;;;;;11.80;5.15;;;9.30;99.90;;;;;;5024891;28;20044;-58
2022/09/28 08:59:55;;;;;;;11.73;4.07;;;9.40;99.90;;;;;;5025246;28;20049;-57
2022/09/28 09:02:27;;;;;;;10.23;4.47;;;9.50;99.90;;;;;;5020642;28;20059;-56
2022/09/28 09:05:08;;;;;;;9.73;3.85;;;9.60;99.90;;;;;;5020627;28;20063;-56
2022/09/28 09:07:45;;;;;;;11.63;4.72;;;9.70;99.90;;;;;;5036197;28;20131;-55
2022/09/28 09:10:13;;;;;;;13.95;4.30;;;9.80;99.90;;;;;;5029506;28;20075;-59
2022/09/28 09:12:41;;;;;;;13.90;4.38;;;9.90;99.90;;;;;;5036525;28;20065;-58
2022/09/28 09:15:08;;;;;;;11.68;4.53;;;9.90;99.90;;;;;;5054506;28;20419;-55
2022/09/28 09:17:35;;;;;;;10.63;4.40;;;10.10;99.90;;;;;;5027259;28;20504;-55
2022/09/28 09:20:27;;;;;;;8.93;3.95;;;10.20;99.90;;;;;;5035927;28;20053;-58
2022/09/28 09:23:10;;;;;;;7.35;4.00;;;10.30;99.90;;;;;;5019620;28;20525;-58
2022/09/28 09:25:37;;;;;;;12.98;4.57;;;10.40;99.90;;;;;;5022112;28;20107;-54
2022/09/28 09:28:06;;;;;;;10.20;5.00;;;10.50;99.90;;;;;;5015317;28;20045;-58
2022/09/28 09:30:33;;;;;;;10.07;4.43;;;10.60;99.90;;;;;;5018315;28;20480;-55
2022/09/28 09:33:01;;;;;;;10.10;4.60;;;10.70;99.90;;;;;;5027709;28;20045;-56
2022/09/28 09:35:29;;;;;;;18.73;10.48;;;10.80;99.90;;;;;;5016778;28;20075;-57
2022/09/28 09:38:06;;;;;;;10.70;4.70;;;10.90;99.90;;;;;;5032234;28;20481;-57
2022/09/28 09:40:52;;;;;;;10.00;5.00;;;11.10;99.90;;;;;;5027447;28;20056;-57
2022/09/28 09:43:42;;;;;;;9.38;4.22;;;11.20;99.90;;;;;;5032223;28;20061;-56
2022/09/28 09:46:27;;;;;;;12.02;4.38;;;11.30;99.90;;;;;;5029484;28;20059;-57
2022/09/28 09:49:14;;;;;;;10.68;4.43;;;11.40;99.90;;;;;;5024692;28;20044;-54
2022/09/28 09:51:41;;;;;;;10.35;3.30;;;11.50;99.90;;;;;;5034381;28;20049;-58
2022/09/28 09:54:08;;;;;;;7.97;3.58;;;11.50;99.90;;;;;;5019912;28;20029;-55
2022/09/28 09:56:35;;;;;;;8.20;3.17;;;11.60;99.90;;;;;;5026843;28;20037;-59
2022/09/28 09:59:16;;;;;;;8.77;3.10;;;11.60;99.90;;;;;;5023672;28;20049;-53
2022/09/28 10:02:03;;;;;;;7.47;2.97;;;11.60;99.90;;;;;;5020473;28;20042;-55
2022/09/28 10:04:42;;;;;;;7.90;2.95;;;11.70;99.90;;;;;;5016880;28;20064;-58
2022/09/28 10:07:16;;;;;;;6.50;2.92;;;11.70;99.90;;;;;;5016266;28;20053;-54
2022/09/28 10:09:44;;;;;;;5.60;2.70;;;11.70;99.90;;;;;;5015850;28;20056;-55
2022/09/28 10:12:29;;;;;;;5.28;2.25;;;11.80;99.90;;;;;;5034306;28;20067;-57
2022/09/28 10:14:58;;;;;;;8.18;2.53;;;11.80;99.90;;;;;;5020797;28;20037;-52
2022/09/28 10:17:27;;;;;;;8.27;2.70;;;11.80;99.90;;;;;;5030297;28;20136;-58
2022/09/28 10:20:14;;;;;;;8.00;2.40;;;11.90;99.90;;;;;;5002732;28;20086;-55
2022/09/28 10:23:02;;;;;;;4.97;2.17;;;12.00;99.90;;;;;;5025595;28;20554;-57
2022/09/28 10:25:28;;;;;;;5.10;2.13;;;12.10;99.90;;;;;;5015774;28;20088;-56
2022/09/28 10:27:55;;;;;;;7.30;2.05;;;12.10;99.90;;;;;;5045467;28;20061;-51
2022/09/28 10:30:22;;;;;;;4.97;1.90;;;12.10;99.90;;;;;;5034371;28;20045;-56
2022/09/28 10:32:49;;;;;;;7.07;2.20;;;12.10;99.90;;;;;;5016086;28;20037;-55
2022/09/28 10:35:16;;;;;;;5.03;1.95;;;12.10;99.90;;;;;;5022405;28;20048;-56
2022/09/28 10:37:44;;;;;;;4.30;1.70;;;12.10;99.90;;;;;;5028396;28;20459;-55
2022/09/28 10:40:29;;;;;;;8.02;2.20;;;12.10;99.90;;;;;;5035067;28;20045;-54
2022/09/28 10:42:57;;;;;;;48.15;2.80;;;12.10;99.90;;;;;;5015657;28;20385;-58
2022/09/28 10:45:24;;;;;;;9.27;2.20;;;12.10;99.90;;;;;;5039203;28;20077;-51
2022/09/28 10:47:51;;;;;;;9.68;2.00;;;12.20;99.90;;;;;;5013643;28;20056;-57
2022/09/28 10:50:18;;;;;;;3.58;1.58;;;12.30;99.90;;;;;;5021384;28;20041;-57
2022/09/28 10:52:46;;;;;;;3.80;1.10;;;12.40;99.90;;;;;;5022614;28;20454;-58
2022/09/28 10:55:35;;;;;;;4.35;1.20;;;12.50;99.20;;;;;;5052070;28;20064;-56
2022/09/28 10:58:02;;;;;;;7.28;1.35;;;12.70;97.70;;;;;;5029453;28;20410;-56
2022/09/28 11:00:39;;;;;;;3.67;1.30;;;12.70;97.90;;;;;;5044027;28;20045;-56
2022/09/28 11:03:12;;;;;;;2.85;0.90;;;12.70;96.60;;;;;;5008271;28;20098;-55
2022/09/28 11:05:42;;;;;;;5.90;1.20;;;12.70;97.00;;;;;;5033822;28;20049;-56
2022/09/28 11:08:08;;;;;;;4.38;1.20;;;12.70;96.80;;;;;;5020631;28;20052;-58
2022/09/28 11:10:44;;;;;;;2.63;1.10;;;12.80;97.30;;;;;;5008905;28;20136;-58
2022/09/28 11:13:13;;;;;;;3.53;1.17;;;12.80;96.10;;;;;;5028283;28;20052;-59
2022/09/28 11:15:44;;;;;;;5.25;1.10;;;12.90;95.80;;;;;;5034627;28;20045;-59
2022/09/28 11:18:21;;;;;;;3.58;0.95;;;12.90;97.10;;;;;;5014314;28;20045;-55
2022/09/28 11:20:48;;;;;;;2.50;0.82;;;12.90;96.30;;;;;;5032640;28;20041;-58
2022/09/28 11:23:16;;;;;;;4.57;1.10;;;13.10;96.70;;;;;;5014775;28;20059;-58
2022/09/28 11:25:44;;;;;;;5.57;1.30;;;13.00;95.90;;;;;;5026091;28;20044;-58
2022/09/28 11:28:11;;;;;;;5.88;1.40;;;13.00;96.50;;;;;;5034392;28;20045;-58
2022/09/28 11:30:39;;;;;;;3.63;1.40;;;13.00;96.40;;;;;;5031639;28;20116;-57
2022/09/28 11:33:32;;;;;;;2.72;1.00;;;13.00;95.90;;;;;;5009214;28;20049;-52
2022/09/28 11:36:08;;;;;;;3.08;0.90;;;13.00;95.40;;;;;;5026922;28;20056;-58
2022/09/28 11:38:34;;;;;;;4.13;1.33;;;13.10;95.90;;;;;;5014670;28;20045;-57
2022/09/28 11:41:21;;;;;;;1.77;0.82;;;13.10;95.70;;;;;;5015451;28;20516;-57
2022/09/28 11:43:49;;;;;;;3.88;0.93;;;13.20;95.60;;;;;;5021306;28;20045;-54
2022/09/28 11:46:16;;;;;;;3.38;1.20;;;13.20;94.50;;;;;;5018698;28;20400;-56
2022/09/28 11:48:44;;;;;;;2.72;1.13;;;13.30;95.20;;;;;;5021121;28;20440;-56
2022/09/28 11:51:11;;;;;;;4.38;1.10;;;13.30;95.00;;;;;;5019229;28;20166;-54
2022/09/28 11:53:37;;;;;;;4.53;1.20;;;13.30;95.20;;;;;;5018061;28;20496;-54
2022/09/28 11:56:04;;;;;;;3.08;0.95;;;13.30;94.50;;;;;;5021906;28;20068;-56
2022/09/28 11:58:34;;;;;;;3.28;1.00;;;13.30;94.90;;;;;;5018315;28;20045;-57
2022/09/28 12:01:03;;;;;;;4.00;0.95;;;13.20;94.60;;;;;;5021125;28;20405;-57
2022/09/28 12:03:49;;;;;;;3.33;0.95;;;13.30;94.90;;;;;;5017883;28;20037;-55
2022/09/28 12:06:16;;;;;;;2.40;0.93;;;13.30;95.20;;;;;;5034343;28;20049;-59
2022/09/28 12:08:43;;;;;;;4.07;0.90;;;13.40;94.70;;;;;;5018883;28;20054;-58
2022/09/28 12:11:42;;;;;;;;;;;13.50;94.60;;;;;;5033425;28;20045;-56
2022/09/28 12:14:21;;;;;;;4.32;1.23;;;13.60;94.70;;;;;;5020043;28;20023;-58
2022/09/28 12:16:47;;;;;;;3.90;1.20;;;13.70;95.40;;;;;;5036170;28;20092;-57
2022/09/28 12:19:33;;;;;;;3.55;1.00;;;13.80;95.40;;;;;;5027916;28;20045;-61
2022/09/28 12:22:00;;;;;;;6.15;1.13;;;13.80;94.90;;;;;;5030961;28;20473;-64
2022/09/28 12:24:26;;;;;;;4.28;1.20;;;13.70;94.40;;;;;;5034649;28;20403;-64
2022/09/28 12:26:53;;;;;;;7.20;1.42;;;13.80;94.50;;;;;;5022729;28;20132;-64
2022/09/28 12:29:20;;;;;;;26.83;2.03;;;13.80;94.50;;;;;;5046775;28;20531;-60
2022/09/28 12:31:47;;;;;;;7.28;1.00;;;13.90;95.10;;;;;;5031016;28;20042;-64
2022/09/28 12:34:13;;;;;;;4.32;1.10;;;14.00;94.60;;;;;;5032985;28;20037;-63
2022/09/28 12:36:40;;;;;;;3.58;1.10;;;14.10;95.10;;;;;;5035629;28;20092;-64
2022/09/28 12:39:07;;;;;;;3.05;0.93;;;14.10;94.00;;;;;;5033760;28;20164;-62
2022/09/28 12:41:48;;;;;;;2.88;1.05;;;14.20;94.40;;;;;;5038672;28;20045;-62
2022/09/28 12:44:16;;;;;;;2.92;0.90;;;14.30;94.50;;;;;;5042119;28;20030;-63
2022/09/28 12:46:44;;;;;;;4.28;1.15;;;14.30;93.70;;;;;;5037078;28;20037;-63
2022/09/28 12:49:11;;;;;;;4.38;1.23;;;14.30;94.00;;;;;;5043846;28;20061;-65
2022/09/28 12:52:01;;;;;;;4.30;1.20;;;14.30;93.80;;;;;;5033472;28;20515;-64
2022/09/28 12:54:29;;;;;;;4.20;1.20;;;14.30;93.60;;;;;;5034319;28;20045;-62
2022/09/28 12:56:56;;;;;;;2.17;1.02;;;14.40;93.80;;;;;;5036341;28;20137;-63
2022/09/28 12:59:24;;;;;;;3.25;0.90;;;14.40;93.10;;;;;;5036920;28;20104;-62
2022/09/28 13:01:50;;;;;;;2.92;0.90;;;14.40;93.60;;;;;;5034825;28;20045;-60
2022/09/28 13:04:17;;;;;;;4.82;1.00;;;14.40;94.20;;;;;;5038832;28;20033;-61
2022/09/28 13:06:44;;;;;;;3.38;1.10;;;14.40;93.90;;;;;;5036350;28;20046;-62
2022/09/28 13:09:12;;;;;;;4.82;1.20;;;14.40;93.50;;;;;;5050403;28;20115;-64
2022/09/28 13:11:40;;;;;;;7.43;1.40;;;14.50;94.20;;;;;;5036291;28;20449;-64
2022/09/28 13:14:06;;;;;;;3.85;1.20;;;14.50;93.90;;;;;;5037061;28;20043;-62
2022/09/28 13:16:33;;;;;;;5.45;1.30;;;14.50;93.00;;;;;;5029409;28;20041;-62
2022/09/28 13:19:00;;;;;;;5.00;1.08;;;14.50;93.60;;;;;;5042587;28;20038;-64